Time;durP1;ratioP1;P1;durP2;ratioP2;P2;SDS_P1;SDS_P2;PMS_P1;PMS_P2;Temp;Humidity;BMP_temperature;BMP_pressure;BME280_temperature;BME280_humidity;BME280_pressure;Samples;Min_cycle;Max_cycle;Signal;HPM_P1;HPM_P2
2020/12/12 00:00:53;;;;;;;7.60;5.63;;;3.70;99.90;;;;;;4949510;28;20666;-89
2020/12/12 00:03:19;;;;;;;4.90;4.47;;;3.70;99.90;;;;;;4953123;28;20220;-91
2020/12/12 00:05:45;;;;;;;4.83;4.33;;;3.70;99.90;;;;;;4947858;28;20212;-90
2020/12/12 00:08:11;;;;;;;8.10;5.27;;;3.70;99.90;;;;;;4932407;28;20224;-90
2020/12/12 00:10:36;;;;;;;6.17;5.53;;;3.70;99.90;;;;;;4964711;28;20712;-91
2020/12/12 00:13:02;;;;;;;7.43;6.00;;;3.80;99.90;;;;;;4964806;28;20225;-90
2020/12/12 00:15:28;;;;;;;7.50;6.10;;;3.80;99.90;;;;;;4952354;28;20323;-88
2020/12/12 00:17:54;;;;;;;10.10;5.90;;;3.80;99.90;;;;;;4963798;28;20217;-90
2020/12/12 00:20:20;;;;;;;3.73;3.43;;;3.80;99.90;;;;;;4963506;28;20282;-91
2020/12/12 00:22:46;;;;;;;8.20;3.63;;;3.80;99.90;;;;;;4946854;28;20224;-91
2020/12/12 00:25:11;;;;;;;7.33;5.33;;;3.80;99.90;;;;;;4948397;28;20192;-90
2020/12/12 00:27:37;;;;;;;6.77;6.07;;;3.80;99.90;;;;;;4954837;28;20757;-90
2020/12/12 00:30:04;;;;;;;6.77;5.63;;;3.80;99.90;;;;;;4948092;28;20788;-90
2020/12/12 00:32:30;;;;;;;10.53;6.47;;;3.80;99.90;;;;;;4962442;28;20223;-89
2020/12/12 00:34:57;;;;;;;8.77;5.93;;;3.70;99.90;;;;;;4963393;28;20228;-89
2020/12/12 00:37:23;;;;;;;5.93;4.57;;;3.70;99.90;;;;;;4953752;28;20247;-92
2020/12/12 00:39:49;;;;;;;2.73;2.53;;;3.70;99.90;;;;;;4949119;28;20197;-91
2020/12/12 00:42:14;;;;;;;7.47;4.93;;;3.70;99.90;;;;;;4962016;28;20231;-91
2020/12/12 00:44:40;;;;;;;10.73;4.83;;;3.70;99.90;;;;;;4935858;28;20229;-89
2020/12/12 00:47:06;;;;;;;4.73;3.37;;;3.70;99.90;;;;;;4954293;28;21026;-90
2020/12/12 00:49:32;;;;;;;5.50;5.00;;;3.70;99.90;;;;;;4946626;28;20189;-89
2020/12/12 00:51:58;;;;;;;5.27;4.47;;;3.70;99.90;;;;;;4955407;28;20572;-89
2020/12/12 00:54:24;;;;;;;13.57;5.73;;;3.70;99.90;;;;;;4963367;28;20252;-90
2020/12/12 00:56:50;;;;;;;4.63;3.70;;;3.70;99.90;;;;;;4948988;28;20814;-90
2020/12/12 00:59:18;;;;;;;8.03;5.60;;;3.70;99.90;;;;;;4951762;28;20239;-91
2020/12/12 01:01:45;;;;;;;10.90;4.03;;;3.70;99.90;;;;;;4957011;28;20223;-90
2020/12/12 01:04:11;;;;;;;5.80;4.33;;;3.70;99.90;;;;;;4957003;28;20207;-89
2020/12/12 01:06:37;;;;;;;7.77;5.43;;;3.70;99.90;;;;;;4957256;28;20306;-89
2020/12/12 01:09:03;;;;;;;9.00;4.77;;;3.70;99.90;;;;;;4955092;28;20302;-89
2020/12/12 01:11:29;;;;;;;8.67;4.77;;;3.70;99.90;;;;;;4971478;28;20311;-89
2020/12/12 01:13:54;;;;;;;4.53;4.17;;;3.70;99.90;;;;;;4962351;28;21186;-90
2020/12/12 01:16:20;;;;;;;7.40;6.47;;;3.70;99.90;;;;;;4954558;28;20191;-89
2020/12/12 01:18:46;;;;;;;3.07;2.70;;;3.60;99.90;;;;;;4957369;28;20306;-90
2020/12/12 01:21:16;;;;;;;4.03;3.73;;;3.70;99.90;;;;;;4943222;28;20803;-89
2020/12/12 01:23:42;;;;;;;4.90;4.17;;;3.70;99.90;;;;;;4962246;28;20212;-89
2020/12/12 01:26:08;;;;;;;8.73;5.83;;;3.60;99.90;;;;;;4968230;28;20259;-90
2020/12/12 01:28:35;;;;;;;5.13;4.07;;;3.60;99.90;;;;;;4966087;28;20267;-90
2020/12/12 01:31:01;;;;;;;8.27;5.60;;;3.60;99.90;;;;;;4968062;28;20188;-90
2020/12/12 01:33:27;;;;;;;6.03;5.27;;;3.60;99.90;;;;;;4981407;28;20232;-89
2020/12/12 01:35:53;;;;;;;3.47;3.27;;;3.60;99.90;;;;;;4964997;28;21015;-90
2020/12/12 01:38:19;;;;;;;5.03;4.60;;;3.60;99.90;;;;;;4947074;28;20236;-89
2020/12/12 01:40:45;;;;;;;9.53;5.90;;;3.60;99.90;;;;;;4948688;28;20258;-90
2020/12/12 01:43:13;;;;;;;4.80;3.57;;;3.60;99.90;;;;;;4958943;28;20193;-90
2020/12/12 01:45:39;;;;;;;9.17;5.00;;;3.60;99.90;;;;;;4959546;28;20432;-90
2020/12/12 01:48:08;;;;;;;5.70;5.07;;;3.60;99.90;;;;;;4948779;28;20305;-90
2020/12/12 01:50:35;;;;;;;9.50;5.47;;;3.60;99.90;;;;;;4971124;28;20226;-90
2020/12/12 01:53:01;;;;;;;6.57;3.80;;;3.60;99.90;;;;;;4970177;28;20285;-90
2020/12/12 01:55:28;;;;;;;7.50;6.90;;;3.50;99.90;;;;;;4972557;28;20184;-89
2020/12/12 01:57:54;;;;;;;10.50;5.07;;;3.50;99.90;;;;;;4958147;28;20242;-89
2020/12/12 02:00:23;;;;;;;5.50;4.80;;;3.50;99.90;;;;;;4961489;28;20251;-90
2020/12/12 02:02:55;;;;;;;10.27;5.00;;;3.60;99.90;;;;;;4979265;28;21163;-90
2020/12/12 02:05:39;;;;;;;5.23;4.63;;;3.60;99.90;;;;;;4964430;28;20220;-90
2020/12/12 02:08:15;;;;;;;6.53;4.17;;;3.50;99.90;;;;;;4965063;28;20225;-90
2020/12/12 02:10:47;;;;;;;5.27;4.87;;;3.60;99.90;;;;;;4964553;28;20684;-90
2020/12/12 02:13:15;;;;;;;5.20;3.57;;;3.60;99.90;;;;;;4983180;28;20247;-89
2020/12/12 02:15:41;;;;;;;4.87;4.43;;;3.60;99.90;;;;;;4963086;28;20258;-90
2020/12/12 02:18:18;;;;;;;6.70;4.10;;;3.60;99.90;;;;;;4980324;28;20220;-91
2020/12/12 02:20:53;;;;;;;6.57;4.63;;;3.60;99.90;;;;;;4988743;28;20222;-89
2020/12/12 02:23:21;;;;;;;8.67;5.77;;;3.60;99.90;;;;;;4988088;28;20305;-90
2020/12/12 02:25:47;;;;;;;9.67;5.83;;;3.60;99.90;;;;;;4955875;28;20231;-89
2020/12/12 02:28:16;;;;;;;9.23;6.60;;;3.60;99.90;;;;;;4966383;28;20188;-89
2020/12/12 02:30:42;;;;;;;7.83;6.93;;;3.60;99.90;;;;;;4965238;28;20216;-88
2020/12/12 02:33:08;;;;;;;14.30;6.87;;;3.60;99.90;;;;;;4964575;28;20251;-90
2020/12/12 02:35:34;;;;;;;7.20;5.30;;;3.60;99.90;;;;;;4945870;28;20713;-89
2020/12/12 02:38:00;;;;;;;5.80;5.30;;;3.60;99.90;;;;;;4969845;28;20756;-89
2020/12/12 02:40:26;;;;;;;8.33;4.90;;;3.60;99.90;;;;;;4972067;28;20220;-89
2020/12/12 02:42:51;;;;;;;5.17;4.53;;;3.60;99.90;;;;;;4973323;28;20751;-91
2020/12/12 02:45:18;;;;;;;3.93;3.50;;;3.60;99.90;;;;;;4961393;28;20307;-89
2020/12/12 02:47:45;;;;;;;5.50;5.03;;;3.60;99.90;;;;;;4952510;28;20843;-89
2020/12/12 02:50:12;;;;;;;6.43;5.83;;;3.60;99.90;;;;;;4952898;28;20246;-89
2020/12/12 02:52:40;;;;;;;5.80;3.53;;;3.60;99.90;;;;;;4967987;28;20239;-90
2020/12/12 02:55:08;;;;;;;5.67;3.97;;;3.60;99.90;;;;;;4969378;28;20172;-90
2020/12/12 02:57:34;;;;;;;8.00;6.57;;;3.60;99.90;;;;;;4959807;28;20220;-89
2020/12/12 03:00:01;;;;;;;12.87;6.40;;;3.60;99.90;;;;;;4983854;28;20346;-90
2020/12/12 03:02:27;;;;;;;5.43;4.93;;;3.60;99.90;;;;;;4975553;28;20215;-90
2020/12/12 03:04:52;;;;;;;7.03;3.63;;;3.60;99.90;;;;;;4977107;28;20219;-91
2020/12/12 03:07:19;;;;;;;9.50;7.30;;;3.60;99.90;;;;;;4952215;28;20603;-89
2020/12/12 03:09:45;;;;;;;4.83;4.53;;;3.60;99.90;;;;;;4984993;28;20192;-89
2020/12/12 03:12:10;;;;;;;4.20;3.80;;;3.60;99.90;;;;;;4974100;28;20216;-89
2020/12/12 03:14:36;;;;;;;4.53;4.17;;;3.60;99.90;;;;;;4958997;28;20751;-89
2020/12/12 03:17:02;;;;;;;8.83;5.13;;;3.60;99.90;;;;;;4958073;28;20234;-89
2020/12/12 03:19:28;;;;;;;3.93;3.07;;;3.60;99.90;;;;;;4952392;28;20239;-89
2020/12/12 03:21:54;;;;;;;3.83;3.27;;;3.60;99.90;;;;;;4952925;28;20191;-89
2020/12/12 03:24:19;;;;;;;6.80;4.43;;;3.60;99.90;;;;;;4979805;28;20228;-88
2020/12/12 03:26:45;;;;;;;6.87;5.43;;;3.60;99.90;;;;;;4974846;28;21039;-89
2020/12/12 03:29:11;;;;;;;7.30;5.60;;;3.60;99.90;;;;;;4984721;28;20220;-89
2020/12/12 03:31:37;;;;;;;5.10;4.40;;;3.50;99.90;;;;;;4952166;28;20243;-89
2020/12/12 03:34:02;;;;;;;4.70;2.70;;;3.60;99.90;;;;;;4993132;28;20242;-90
2020/12/12 03:36:28;;;;;;;6.97;4.60;;;3.50;99.90;;;;;;4952023;28;21770;-90
2020/12/12 03:38:54;;;;;;;6.27;4.63;;;3.50;99.90;;;;;;4989231;28;20258;-91
2020/12/12 03:41:20;;;;;;;5.53;5.00;;;3.50;99.90;;;;;;4991142;28;21212;-89
2020/12/12 03:43:45;;;;;;;4.93;4.57;;;3.50;99.90;;;;;;4974079;28;20224;-89
2020/12/12 03:46:11;;;;;;;4.97;4.50;;;3.50;99.90;;;;;;4968571;28;20608;-88
2020/12/12 03:48:37;;;;;;;2.90;2.70;;;3.50;99.90;;;;;;4974585;28;20690;-89
2020/12/12 03:51:03;;;;;;;7.03;6.17;;;3.50;99.90;;;;;;4950505;28;20219;-89
2020/12/12 03:53:28;;;;;;;12.67;6.77;;;3.50;99.90;;;;;;4957361;28;20783;-89
2020/12/12 03:55:54;;;;;;;5.13;4.70;;;3.50;99.90;;;;;;4951355;28;20226;-90
2020/12/12 03:58:20;;;;;;;6.60;3.93;;;3.50;99.90;;;;;;4974048;28;20231;-91
2020/12/12 04:00:45;;;;;;;13.57;5.90;;;3.50;99.90;;;;;;4975077;28;20200;-89
2020/12/12 04:03:11;;;;;;;4.30;4.00;;;3.50;99.90;;;;;;4967538;28;20586;-89
2020/12/12 04:05:37;;;;;;;7.70;6.73;;;3.50;99.90;;;;;;4951195;28;20215;-91
2020/12/12 04:08:03;;;;;;;6.97;6.27;;;3.50;99.90;;;;;;4950344;28;20262;-91
2020/12/12 04:10:29;;;;;;;9.90;8.07;;;3.50;99.90;;;;;;4957943;28;20862;-90
2020/12/12 04:12:54;;;;;;;7.67;6.13;;;3.40;99.90;;;;;;4986001;28;20220;-90
2020/12/12 04:15:20;;;;;;;8.23;6.03;;;3.50;99.90;;;;;;4982060;28;20262;-90
2020/12/12 04:17:46;;;;;;;7.00;5.60;;;3.50;99.90;;;;;;4950412;28;20702;-90
2020/12/12 04:20:11;;;;;;;8.20;5.60;;;3.40;99.90;;;;;;4965750;28;20657;-90
2020/12/12 04:22:37;;;;;;;7.10;3.30;;;3.50;99.90;;;;;;4973604;28;20999;-91
2020/12/12 04:25:03;;;;;;;10.80;7.07;;;3.50;99.90;;;;;;4952337;28;20602;-90
2020/12/12 04:27:30;;;;;;;8.27;6.27;;;3.40;99.90;;;;;;4949829;28;20224;-90
2020/12/12 04:29:57;;;;;;;6.53;5.83;;;3.50;99.90;;;;;;4986429;28;20223;-90
2020/12/12 04:32:23;;;;;;;5.10;4.60;;;3.50;99.90;;;;;;4983584;28;21249;-91
2020/12/12 04:34:48;;;;;;;8.80;5.43;;;3.50;99.90;;;;;;4966601;28;20223;-88
2020/12/12 04:37:14;;;;;;;7.83;3.57;;;3.50;99.90;;;;;;4985814;28;20279;-90
2020/12/12 04:39:40;;;;;;;8.40;6.43;;;3.50;99.90;;;;;;4964236;28;20231;-90
2020/12/12 04:42:09;;;;;;;6.37;3.83;;;3.50;99.90;;;;;;4982577;28;20220;-92
2020/12/12 04:44:35;;;;;;;8.93;6.47;;;3.50;99.90;;;;;;4981820;28;20216;-90
2020/12/12 04:47:02;;;;;;;8.73;7.80;;;3.50;99.90;;;;;;4989299;28;20239;-90
2020/12/12 04:49:28;;;;;;;6.60;6.00;;;3.50;99.90;;;;;;4989372;28;20188;-91
2020/12/12 04:51:55;;;;;;;9.33;6.50;;;3.50;99.90;;;;;;4952376;28;20258;-90
2020/12/12 04:54:21;;;;;;;7.07;6.00;;;3.50;99.90;;;;;;4966065;28;20223;-90
2020/12/12 04:56:48;;;;;;;5.47;4.93;;;3.50;99.90;;;;;;4953755;28;20220;-90
2020/12/12 04:59:15;;;;;;;7.10;5.47;;;3.50;99.90;;;;;;4954572;28;20259;-90
2020/12/12 05:01:41;;;;;;;9.80;5.07;;;3.50;99.90;;;;;;4965932;28;21001;-91
2020/12/12 05:04:08;;;;;;;7.87;5.00;;;3.50;99.90;;;;;;4967817;28;20243;-90
2020/12/12 05:06:36;;;;;;;8.27;4.67;;;3.50;99.90;;;;;;4989561;28;20305;-90
2020/12/12 05:09:02;;;;;;;10.63;6.50;;;3.50;99.90;;;;;;4972262;28;20299;-89
2020/12/12 05:11:28;;;;;;;8.83;6.80;;;3.50;99.90;;;;;;4973295;28;20745;-90
2020/12/12 05:13:54;;;;;;;7.37;6.30;;;3.50;99.90;;;;;;4965172;28;20693;-91
2020/12/12 05:16:20;;;;;;;7.50;5.17;;;3.50;99.90;;;;;;4964345;28;20262;-89
2020/12/12 05:18:48;;;;;;;7.50;6.37;;;3.50;99.90;;;;;;4967007;28;20180;-90
2020/12/12 05:21:14;;;;;;;8.53;5.50;;;3.50;99.90;;;;;;4965177;28;20239;-90
2020/12/12 05:23:40;;;;;;;12.20;6.27;;;3.50;99.90;;;;;;4968668;28;20331;-89
2020/12/12 05:26:06;;;;;;;6.50;5.83;;;3.50;99.90;;;;;;4948982;28;20219;-90
2020/12/12 05:28:32;;;;;;;6.47;5.53;;;3.50;99.90;;;;;;4982705;28;20254;-90
2020/12/12 05:30:58;;;;;;;8.37;7.30;;;3.50;99.90;;;;;;4950862;28;20752;-91
2020/12/12 05:33:25;;;;;;;7.97;6.33;;;3.50;99.90;;;;;;4953789;28;20239;-90
2020/12/12 05:35:52;;;;;;;12.17;5.43;;;3.50;99.90;;;;;;4945997;28;20288;-90
2020/12/12 05:38:19;;;;;;;7.43;5.90;;;3.50;99.90;;;;;;4969195;28;20208;-90
2020/12/12 05:40:51;;;;;;;10.90;6.53;;;3.50;99.90;;;;;;4987631;28;20273;-89
2020/12/12 05:43:17;;;;;;;6.37;5.63;;;3.50;99.90;;;;;;4965218;28;20192;-89
2020/12/12 05:45:43;;;;;;;5.13;4.63;;;3.50;99.90;;;;;;4950174;28;21111;-90
2020/12/12 05:48:10;;;;;;;4.90;4.43;;;3.50;99.90;;;;;;4964748;28;20219;-90
2020/12/12 05:50:36;;;;;;;9.27;8.37;;;3.50;99.90;;;;;;4964021;28;20254;-90
2020/12/12 05:53:04;;;;;;;7.33;4.87;;;3.50;99.90;;;;;;4964691;28;21092;-89
2020/12/12 05:55:34;;;;;;;13.87;7.17;;;3.50;99.90;;;;;;4965058;28;20192;-89
2020/12/12 05:58:01;;;;;;;8.73;6.97;;;3.50;99.90;;;;;;4950587;28;20192;-91
2020/12/12 06:00:29;;;;;;;8.87;6.13;;;3.50;99.90;;;;;;4965155;28;20282;-89
2020/12/12 06:03:00;;;;;;;10.40;5.83;;;3.50;99.90;;;;;;4989303;28;20220;-89
2020/12/12 06:05:32;;;;;;;9.83;7.07;;;3.50;99.90;;;;;;4965292;28;20212;-91
2020/12/12 06:08:00;;;;;;;13.07;7.67;;;3.50;99.90;;;;;;4981360;28;20318;-92
2020/12/12 06:10:31;;;;;;;6.40;5.67;;;3.50;99.90;;;;;;4964941;28;20180;-89
2020/12/12 06:13:03;;;;;;;7.93;6.87;;;3.50;99.90;;;;;;4966343;28;20249;-90
2020/12/12 06:15:41;;;;;;;9.80;6.47;;;3.50;99.90;;;;;;4963882;28;20219;-90
2020/12/12 06:18:39;;;;;;;12.30;6.10;;;3.50;99.90;;;;;;4961298;28;20208;-88
2020/12/12 06:21:09;;;;;;;14.30;6.57;;;3.50;99.90;;;;;;4958798;28;20231;-89
2020/12/12 06:23:40;;;;;;;7.47;5.57;;;3.50;99.90;;;;;;4931371;28;20287;-90
2020/12/12 06:26:07;;;;;;;8.60;6.03;;;3.50;99.90;;;;;;4950626;28;20223;-89
2020/12/12 06:28:40;;;;;;;7.63;6.93;;;3.50;99.90;;;;;;4948005;28;20275;-90
2020/12/12 06:31:09;;;;;;;7.90;6.20;;;3.50;99.90;;;;;;4964951;28;20180;-90
2020/12/12 06:33:54;;;;;;;10.30;8.37;;;3.50;99.90;;;;;;4964711;28;20270;-89
2020/12/12 06:36:26;;;;;;;17.40;6.00;;;3.50;99.90;;;;;;4962849;28;20224;-89
2020/12/12 06:39:16;;;;;;;14.43;6.40;;;3.50;99.90;;;;;;4979013;28;20415;-90
2020/12/12 06:41:42;;;;;;;6.87;6.20;;;3.50;99.90;;;;;;4986340;28;20608;-89
2020/12/12 06:44:08;;;;;;;4.80;4.27;;;3.50;99.90;;;;;;4960545;28;20228;-88
2020/12/12 06:46:51;;;;;;;8.17;6.17;;;3.50;99.90;;;;;;4952421;28;20248;-86
2020/12/12 06:49:17;;;;;;;10.63;8.87;;;3.60;99.90;;;;;;4967078;28;20180;-87
2020/12/12 06:51:43;;;;;;;5.63;5.20;;;3.60;99.90;;;;;;4968801;28;20180;-88
2020/12/12 06:54:09;;;;;;;8.73;6.20;;;3.60;99.90;;;;;;4952124;28;20286;-88
2020/12/12 06:56:35;;;;;;;10.23;7.70;;;3.60;99.90;;;;;;4952316;28;20270;-88
2020/12/12 06:59:22;;;;;;;6.83;5.70;;;3.60;99.90;;;;;;4968541;28;20306;-88
2020/12/12 07:02:07;;;;;;;6.80;5.93;;;3.60;99.90;;;;;;4985559;28;20247;-87
2020/12/12 07:04:37;;;;;;;11.10;5.57;;;3.60;99.90;;;;;;4984937;28;20180;-91
2020/12/12 07:07:08;;;;;;;7.00;5.70;;;3.60;99.90;;;;;;4970034;28;20175;-89
2020/12/12 07:09:38;;;;;;;15.87;8.03;;;3.60;99.90;;;;;;4984196;28;20228;-89
2020/12/12 07:12:05;;;;;;;13.00;7.30;;;3.60;99.90;;;;;;4967252;28;20223;-89
2020/12/12 07:14:32;;;;;;;7.17;6.13;;;3.60;99.90;;;;;;4971612;28;20323;-89
2020/12/12 07:17:00;;;;;;;12.70;6.07;;;3.60;99.90;;;;;;4959191;28;20247;-89
2020/12/12 07:19:39;;;;;;;6.83;5.90;;;3.60;99.90;;;;;;4983926;28;20184;-89
2020/12/12 07:22:10;;;;;;;8.27;5.73;;;3.60;99.90;;;;;;4985935;28;20192;-88
2020/12/12 07:24:37;;;;;;;7.23;6.50;;;3.60;99.90;;;;;;4982877;28;20668;-89
2020/12/12 07:27:05;;;;;;;20.43;7.13;;;3.60;99.90;;;;;;4966308;28;20245;-88
2020/12/12 07:29:32;;;;;;;12.07;6.20;;;3.60;99.90;;;;;;4967069;28;20246;-88
2020/12/12 07:31:58;;;;;;;12.20;9.57;;;3.60;99.90;;;;;;4986362;28;20223;-87
2020/12/12 07:34:26;;;;;;;8.63;4.90;;;3.60;99.90;;;;;;4966616;28;20354;-88
2020/12/12 07:37:03;;;;;;;13.00;8.03;;;3.60;99.90;;;;;;4968628;28;20196;-87
2020/12/12 07:39:34;;;;;;;16.47;7.30;;;3.60;99.90;;;;;;4984886;28;20283;-90
2020/12/12 07:42:02;;;;;;;13.93;8.23;;;3.60;99.90;;;;;;4984386;28;20235;-89
2020/12/12 07:44:32;;;;;;;9.47;7.67;;;3.70;99.90;;;;;;4967870;28;20228;-89
2020/12/12 07:47:07;;;;;;;8.17;6.63;;;3.60;99.90;;;;;;4973284;28;20704;-89
2020/12/12 07:49:34;;;;;;;8.37;6.63;;;3.60;99.90;;;;;;4966390;28;20187;-89
2020/12/12 07:52:05;;;;;;;20.83;7.90;;;3.70;99.90;;;;;;4967714;28;20747;-91
2020/12/12 07:54:43;;;;;;;13.87;6.40;;;3.70;99.90;;;;;;4982943;28;20235;-91
2020/12/12 07:57:13;;;;;;;8.87;4.53;;;3.70;99.90;;;;;;4963418;28;20286;-90
2020/12/12 07:59:40;;;;;;;7.83;6.17;;;3.70;99.90;;;;;;4946965;28;20776;-91
2020/12/12 08:02:07;;;;;;;9.03;5.23;;;3.70;99.90;;;;;;4954315;28;20258;-90
2020/12/12 08:04:34;;;;;;;16.33;9.03;;;3.70;99.90;;;;;;4982659;28;20334;-89
2020/12/12 08:07:20;;;;;;;9.47;6.80;;;3.70;99.90;;;;;;4985625;28;20199;-90
2020/12/12 08:09:51;;;;;;;11.27;6.83;;;3.70;99.90;;;;;;4984381;28;20216;-90
2020/12/12 08:12:29;;;;;;;11.97;7.80;;;3.70;99.90;;;;;;4950536;28;20219;-90
2020/12/12 08:15:08;;;;;;;10.20;9.03;;;3.70;99.90;;;;;;4974432;28;20223;-90
2020/12/12 08:17:34;;;;;;;10.67;7.17;;;3.70;99.90;;;;;;4967190;28;20222;-90
2020/12/12 08:20:01;;;;;;;15.43;4.57;;;3.80;99.90;;;;;;4946293;28;20228;-89
2020/12/12 08:22:28;;;;;;;10.67;7.37;;;3.70;99.90;;;;;;4932456;28;20501;-87
2020/12/12 08:24:54;;;;;;;15.27;6.70;;;3.70;99.90;;;;;;4983009;28;20195;-90
2020/12/12 08:27:28;;;;;;;11.20;7.43;;;3.70;99.90;;;;;;4957161;28;20826;-88
2020/12/12 08:29:56;;;;;;;9.00;6.77;;;3.80;99.90;;;;;;4982793;28;20220;-89
2020/12/12 08:32:30;;;;;;;11.60;6.43;;;3.80;99.90;;;;;;4961232;28;20216;-89
2020/12/12 08:35:13;;;;;;;14.37;7.10;;;3.80;99.90;;;;;;4951153;28;20688;-90
2020/12/12 08:37:40;;;;;;;12.63;5.50;;;3.80;99.90;;;;;;4981701;28;20223;-88
2020/12/12 08:40:10;;;;;;;21.27;5.03;;;3.80;99.90;;;;;;4974499;28;20196;-89
2020/12/12 08:42:37;;;;;;;8.67;5.90;;;3.80;99.90;;;;;;4978369;28;20294;-91
2020/12/12 08:45:16;;;;;;;12.30;5.53;;;3.80;99.90;;;;;;4978597;28;20531;-90
2020/12/12 08:47:43;;;;;;;6.53;4.70;;;3.80;99.90;;;;;;4985998;28;20696;-91
2020/12/12 08:50:09;;;;;;;15.13;6.23;;;3.80;99.90;;;;;;4949047;28;20220;-90
2020/12/12 08:52:35;;;;;;;10.07;6.07;;;3.80;99.90;;;;;;4949082;28;20213;-90
2020/12/12 08:55:03;;;;;;;11.53;6.23;;;3.90;99.90;;;;;;4988801;28;20199;-93
2020/12/12 08:57:28;;;;;;;14.20;8.17;;;3.80;99.90;;;;;;4964475;28;20215;-91
2020/12/12 09:00:03;;;;;;;10.37;6.70;;;3.90;99.90;;;;;;4952543;28;20226;-90
2020/12/12 09:02:29;;;;;;;20.47;8.33;;;3.90;99.90;;;;;;4983331;28;20318;-91
2020/12/12 09:05:06;;;;;;;11.60;6.40;;;3.90;99.90;;;;;;4960554;28;20573;-90
2020/12/12 09:07:32;;;;;;;4.43;4.10;;;3.90;99.90;;;;;;4959759;28;20978;-90
2020/12/12 09:10:12;;;;;;;10.53;7.20;;;3.90;99.90;;;;;;4954904;28;20195;-92
2020/12/12 09:12:51;;;;;;;7.57;6.27;;;3.90;99.90;;;;;;4938379;28;20291;-93
2020/12/12 09:15:17;;;;;;;16.70;8.60;;;3.90;99.90;;;;;;4973926;28;20216;-90
2020/12/12 09:17:42;;;;;;;8.57;6.53;;;3.90;99.90;;;;;;4951554;28;20231;-90
2020/12/12 09:20:09;;;;;;;6.77;6.07;;;4.00;99.90;;;;;;4937318;28;20247;-92
2020/12/12 09:22:35;;;;;;;9.53;6.87;;;4.00;99.90;;;;;;4952053;28;20193;-90
2020/12/12 09:25:02;;;;;;;17.60;7.77;;;4.00;99.90;;;;;;4972351;28;20383;-90
2020/12/12 09:27:28;;;;;;;8.93;5.83;;;4.00;99.90;;;;;;4968279;28;20243;-91
2020/12/12 09:29:54;;;;;;;10.33;5.10;;;4.00;99.90;;;;;;4987386;28;20694;-89
2020/12/12 09:32:21;;;;;;;9.50;7.43;;;4.00;99.90;;;;;;4968441;28;20254;-90
2020/12/12 09:34:46;;;;;;;6.40;5.70;;;4.00;99.90;;;;;;4949451;28;20241;-90
2020/12/12 09:37:12;;;;;;;11.53;6.13;;;4.00;99.90;;;;;;4951331;28;20192;-89
2020/12/12 09:39:38;;;;;;;7.43;6.70;;;4.10;99.90;;;;;;4971423;28;20217;-91
2020/12/12 09:42:04;;;;;;;8.03;6.67;;;4.10;99.90;;;;;;4965327;28;21041;-86
2020/12/12 09:44:30;;;;;;;10.70;8.37;;;4.10;99.90;;;;;;4972387;28;20339;-92
2020/12/12 09:46:56;;;;;;;11.17;6.77;;;4.10;99.90;;;;;;4965064;28;20247;-90
2020/12/12 09:49:22;;;;;;;9.53;6.43;;;4.10;99.90;;;;;;4966031;28;20271;-90
2020/12/12 09:51:48;;;;;;;26.00;7.90;;;4.10;99.90;;;;;;4962133;28;20228;-91
2020/12/12 09:54:14;;;;;;;8.57;6.20;;;4.10;99.90;;;;;;4959048;28;20247;-91
2020/12/12 09:56:41;;;;;;;13.67;7.23;;;4.10;99.90;;;;;;4970301;28;21310;-91
2020/12/12 09:59:07;;;;;;;12.07;4.83;;;4.10;99.90;;;;;;4952082;28;20259;-91
2020/12/12 10:01:32;;;;;;;14.17;7.93;;;4.10;99.90;;;;;;4938690;28;20291;-91
2020/12/12 10:03:58;;;;;;;10.27;6.50;;;4.20;99.90;;;;;;4989200;28;20196;-91
2020/12/12 10:06:24;;;;;;;10.93;7.33;;;4.20;99.90;;;;;;4962042;28;20370;-90
2020/12/12 10:08:50;;;;;;;9.27;5.93;;;4.20;99.90;;;;;;4953126;28;20234;-92
2020/12/12 10:11:15;;;;;;;8.23;5.47;;;4.20;99.90;;;;;;4961685;28;20249;-90
2020/12/12 10:13:41;;;;;;;8.57;5.33;;;4.20;99.90;;;;;;4968268;28;20730;-91
2020/12/12 10:16:07;;;;;;;21.63;7.47;;;4.20;99.90;;;;;;4978195;28;20808;-91
2020/12/12 10:18:33;;;;;;;9.67;6.03;;;4.20;99.90;;;;;;4954680;28;20786;-90
2020/12/12 10:20:59;;;;;;;11.23;8.03;;;4.20;99.90;;;;;;4970749;28;20219;-90
2020/12/12 10:23:25;;;;;;;10.93;5.33;;;4.20;99.90;;;;;;4986124;28;20306;-90
2020/12/12 10:25:50;;;;;;;6.07;5.43;;;4.20;99.90;;;;;;4986174;28;20220;-90
2020/12/12 10:28:17;;;;;;;14.60;6.67;;;4.20;99.90;;;;;;4972154;28;20195;-91
2020/12/12 10:30:43;;;;;;;9.47;6.00;;;4.20;99.90;;;;;;4986545;28;20219;-89
2020/12/12 10:33:09;;;;;;;7.40;6.70;;;4.20;99.90;;;;;;4973721;28;20646;-90
2020/12/12 10:35:35;;;;;;;14.77;8.73;;;4.30;99.90;;;;;;4943885;28;20229;-89
2020/12/12 10:38:01;;;;;;;9.83;6.90;;;4.30;99.90;;;;;;4939431;28;20224;-91
2020/12/12 10:41:00;;;;;;;11.70;5.83;;;4.30;99.90;;;;;;4952898;28;20193;-90
2020/12/12 10:43:14;;;;;;;12.30;6.20;;;4.30;99.90;;;;;;4968050;28;20200;-94
2020/12/12 10:45:41;;;;;;;12.17;8.63;;;4.30;99.90;;;;;;4968338;28;20231;-91
2020/12/12 10:48:07;;;;;;;15.13;5.70;;;4.40;99.90;;;;;;4968931;28;20364;-93
2020/12/12 10:50:33;;;;;;;9.37;4.93;;;4.40;99.90;;;;;;4952088;28;20837;-90
2020/12/12 10:52:59;;;;;;;10.23;7.13;;;4.40;99.90;;;;;;4970192;28;20221;-89
2020/12/12 10:55:25;;;;;;;8.50;7.20;;;4.40;99.90;;;;;;4969435;28;20753;-91
2020/12/12 10:57:50;;;;;;;14.47;7.37;;;4.50;99.90;;;;;;4972001;28;20866;-92
2020/12/12 11:00:25;;;;;;;10.47;7.93;;;4.50;99.90;;;;;;4971804;28;20611;-92
2020/12/12 11:02:51;;;;;;;17.13;6.37;;;4.50;99.90;;;;;;4969529;28;20215;-93
2020/12/12 11:05:17;;;;;;;14.80;6.70;;;4.50;99.90;;;;;;4961389;28;20366;-91
2020/12/12 11:07:43;;;;;;;12.67;10.30;;;4.50;99.90;;;;;;4970449;28;20220;-89
2020/12/12 11:10:09;;;;;;;15.93;9.10;;;4.50;99.90;;;;;;4974528;28;20206;-91
2020/12/12 11:12:35;;;;;;;13.27;9.77;;;4.50;99.90;;;;;;4973278;28;20806;-92
2020/12/12 11:15:01;;;;;;;12.10;7.23;;;4.50;99.90;;;;;;4974137;28;20810;-90
2020/12/12 11:17:26;;;;;;;9.87;7.53;;;4.50;99.90;;;;;;4973401;28;20220;-89
2020/12/12 11:19:52;;;;;;;13.87;8.53;;;4.50;99.90;;;;;;4971686;28;20676;-89
2020/12/12 11:22:18;;;;;;;7.30;5.17;;;4.60;99.90;;;;;;4959789;28;20538;-89
2020/12/12 11:24:43;;;;;;;13.97;6.47;;;4.60;99.90;;;;;;4936622;28;21151;-90
2020/12/12 11:27:09;;;;;;;9.03;7.50;;;4.50;99.90;;;;;;4951381;28;20347;-90
2020/12/12 11:29:35;;;;;;;13.37;6.93;;;4.60;99.90;;;;;;4968194;28;20234;-90
2020/12/12 11:32:01;;;;;;;12.93;7.43;;;4.60;99.90;;;;;;4949700;28;20225;-90
2020/12/12 11:34:32;;;;;;;11.23;8.70;;;4.60;99.90;;;;;;4952694;28;20308;-91
2020/12/12 11:47:24;;;;;;;18.80;9.03;;;4.60;99.90;;;;;;4958920;28;20327;-90
2020/12/12 11:49:50;;;;;;;13.37;8.03;;;4.70;99.90;;;;;;4973969;28;20317;-89
2020/12/12 11:52:17;;;;;;;8.63;6.60;;;4.70;99.90;;;;;;4973436;28;20306;-89
2020/12/12 11:54:43;;;;;;;16.60;8.57;;;4.60;99.90;;;;;;4956091;28;20224;-90
2020/12/12 11:57:08;;;;;;;12.03;6.80;;;4.60;99.90;;;;;;4956787;28;20684;-89
2020/12/12 11:59:34;;;;;;;17.83;7.37;;;4.70;99.90;;;;;;4947063;28;21052;-90
2020/12/12 12:02:00;;;;;;;7.73;5.77;;;4.70;99.90;;;;;;4947084;28;20383;-90
2020/12/12 12:04:26;;;;;;;19.37;10.67;;;4.80;99.90;;;;;;4937795;28;20658;-89
2020/12/12 12:06:52;;;;;;;15.63;9.27;;;4.70;99.90;;;;;;4964409;28;20603;-90
2020/12/12 12:09:31;;;;;;;11.73;7.70;;;4.70;99.90;;;;;;4946334;28;20213;-89
2020/12/12 12:11:57;;;;;;;17.17;7.53;;;4.70;99.90;;;;;;4952549;28;20221;-90
2020/12/12 12:14:23;;;;;;;8.70;7.30;;;4.70;99.90;;;;;;4931927;28;20234;-91
2020/12/12 12:16:49;;;;;;;14.63;8.07;;;4.70;99.90;;;;;;4917290;29;20769;-90
2020/12/12 12:19:16;;;;;;;8.50;5.10;;;4.70;99.90;;;;;;4936573;28;20717;-89
2020/12/12 12:21:46;;;;;;;12.90;7.73;;;4.80;99.90;;;;;;4962840;28;20314;-90
2020/12/12 12:24:15;;;;;;;13.27;6.33;;;4.80;99.90;;;;;;4946654;28;20243;-88
2020/12/12 12:26:41;;;;;;;9.80;6.03;;;4.80;99.90;;;;;;4960528;28;20344;-90
2020/12/12 12:29:11;;;;;;;9.23;5.80;;;4.80;99.90;;;;;;4953454;28;20388;-89
2020/12/12 12:31:37;;;;;;;6.90;5.67;;;4.80;99.90;;;;;;4962521;28;20189;-90
2020/12/12 12:34:03;;;;;;;10.63;9.30;;;4.80;99.90;;;;;;4961999;28;20260;-90
2020/12/12 12:36:30;;;;;;;13.93;8.77;;;4.80;99.90;;;;;;4962984;28;20343;-89
2020/12/12 12:38:57;;;;;;;19.33;9.67;;;4.90;99.90;;;;;;4961201;28;20223;-91
2020/12/12 12:41:25;;;;;;;14.07;7.57;;;4.90;99.90;;;;;;4931205;28;20252;-90
2020/12/12 12:43:51;;;;;;;11.90;8.43;;;4.90;99.90;;;;;;4963815;28;20224;-88
2020/12/12 12:46:18;;;;;;;16.60;9.10;;;4.90;99.90;;;;;;4938325;28;21201;-89
2020/12/12 12:48:44;;;;;;;11.37;7.93;;;4.90;99.90;;;;;;4945986;28;20239;-89
2020/12/12 12:51:10;;;;;;;16.03;8.47;;;4.90;99.90;;;;;;4960346;28;20680;-87
2020/12/12 12:53:36;;;;;;;12.30;7.47;;;4.90;99.90;;;;;;4944725;28;20251;-90
2020/12/12 12:56:02;;;;;;;10.63;7.47;;;5.00;99.90;;;;;;4960080;28;20303;-90
2020/12/12 12:58:28;;;;;;;13.13;5.77;;;4.90;99.90;;;;;;4961361;28;20236;-90
2020/12/12 13:00:55;;;;;;;17.93;8.43;;;4.90;99.90;;;;;;4947774;28;20193;-89
2020/12/12 13:03:21;;;;;;;5.20;4.73;;;4.90;99.90;;;;;;4962046;28;20256;-89
2020/12/12 13:05:49;;;;;;;12.97;8.03;;;4.90;99.90;;;;;;4970258;28;20650;-90